Share

Fall Rock, KY

5:48 AM EDT on April 25, 2014 (GMT -0400)
Southern McKee (KKYMCKEE2) Elev 1138 ft | 37.36 °N, 83.94 °W | Change Station

Current weather conditions updated 2 seconds ago

Rain
Rain
55.2 °F
Feels Like 55.2 °F
N
0.0
Wind Variable Wind from SSE
Gusts 0.0 mph
Sunrise 6:47 AM
Sunset 8:19 PM
Moon Waning Crescent

Today is forecast to be Cooler than yesterday. Thunderstorms.

Pressure 29.78 in
Visibility 7.0 miles
Clouds Overcast 5500 ft
Dew Point 51 °F
Humidity 86%
Rainfall 0.41 in
Snow Depth Not available.
UV 0 out of 16
Pollen 9.90 out of 12
Air Quality Not available.
Flu Activity Sporadic
METAR KI35 250935Z AUTO 00000KT 7SM OVC055 13/08 A2978 RMK AO1

More Conditions Fewer Conditions

Pressure 29.78 in
Visibility 7.0 miles
Clouds Overcast 5500 ft
Dew Point 51 °F
Humidity 86%
Rainfall 0.41 in
Snow Depth Not available.
UV 0 out of 16
Pollen 9.90 out of 12
Air Quality Not available.
Flu Activity Sporadic
METAR KI35 250935Z AUTO 00000KT 7SM OVC055 13/08 A2978 RMK AO1

More Conditions Fewer Conditions

10-Day Weather Forecast

Almanac

Astronomy

Apr. 25, 2014 Rise Set
Actual Time 6:47 AM EDT 8:19 PM EDT
Civil Twilight 6:20 AM EDT 8:46 PM EDT
Nautical Twilight 5:47 AM EDT 9:19 PM EDT
Astronomical Twilight 5:12 AM EDT 9:54 PM EDT
Moon 4:29 AM EDT 4:45 PM EDT
Length of Visible Light 14h 26m
Length of Day
13h 31m
Tomorrow will be 2m 8s longer.
Waning Crescent, 18% of the Moon is Illuminated
Today
Waning Crescent
Apr 29
New
May 6
First Quarter
May 14
Full
May 21
Last Quarter

Today's Extremes

State Highs State Lows

Community

  • Storm Clouds & Sunset
    Storm Clouds & Sunset
  • Deer in evening light
    Deer in evening light
  • Critter
    Critter
  • Jone Runs Falls
    Jone Runs Falls
  • Easter in Shenandoah National Park
    Easter in Shenandoah National Park

WunderPhotos

Upload Photos

1,704,876 photos uploaded!

WunderBlogs® & News

Nearby

Snow Depth

Station Depth Elevation
No new snow has been reported.

Coastal Water Temperatures

Place Temperature
No Stations Reporting

Earthquake Activity

City Distance Mag. Time & Date
No recent earthquake activity has been reported nearby.
Minimum magnitude displayed is 2.5.

Nearby Weather Stations

Station Location Temp. Dew Point Humidity Wind Precip. Elev Updated Type
Southern McKee, McKee, KY 55.2 °F 51 °F 86% SSE  at  0.0 mph 0.04 in / hr 1138 ft 5:48 AM EDT Rapid Fire
MSWO, London, KY 57.6 °F 55 °F 92% ESE  at  3.4 mph 0.00 in / hr 1163 ft 5:48 AM EDT Rapid Fire
Talbert, KY 51.7 °F 49 °F 90% North  at  0.0 mph 0.19 in / hr 994 ft 5:45 AM EDT Normal

Show More Stations Show Fewer Stations

What do you think?

We're not finished. Please let us know what you like, what you don't like, and what you are still missing.